Terminal Aerodrome Forecast
Issued by NWS Blacksburg, VA

Home | Current Version | Previous Version | Text Only | Print | Product List | Glossary On
Versions: 1 2 3 4 5 6 7 8 9 10 11 12 13
000
FTUS41 KRNK 221720
TAFROA
TAF
KROA 221720Z 2218/2318 19005KT P6SM BKN200
     FM230100 22005KT P6SM VCSH BKN150
     FM230500 23005KT 4SM RA BKN025 OVC050
     FM231000 VRB03KT P6SM VCSH OVC015
     FM231300 23005KT P6SM SCT025=

USA.gov is the U.S. government's official web portal to all federal, state and local government web resources and services.